Time;durP1;ratioP1;P1;durP2;ratioP2;P2;SDS_P1;SDS_P2;PMS_P1;PMS_P2;Temp;Humidity;BMP_temperature;BMP_pressure;BME280_temperature;BME280_humidity;BME280_pressure;Samples;Min_cycle;Max_cycle;Signal;HPM_P1;HPM_P2
2021/03/18 04:04:31;;;;;;;34.73;16.55;;;;;;;0.83;100.00;99227.57;1741652;77;21566;-63
2021/03/18 04:07:05;;;;;;;35.13;17.80;;;;;;;0.87;100.00;99222.95;1775078;79;21219;-63
2021/03/18 04:09:33;;;;;;;38.00;18.15;;;;;;;0.88;100.00;99221.55;1776262;79;21189;-63
2021/03/18 04:12:01;;;;;;;38.38;18.23;;;;;;;0.91;100.00;99217.86;1775243;79;21179;-63
2021/03/18 04:14:33;;;;;;;31.10;16.57;;;;;;;0.93;100.00;99230.08;1749248;80;21076;-63
2021/03/18 04:17:07;;;;;;;34.33;17.90;;;;;;;0.93;100.00;99228.31;1776464;79;21491;-63
2021/03/18 04:19:36;;;;;;;37.20;18.20;;;;;;;0.94;100.00;99232.97;1773961;79;20985;-61
2021/03/18 04:22:05;;;;;;;41.15;17.65;;;;;;;0.95;100.00;99234.13;1753712;80;21495;-67
2021/03/18 04:24:34;;;;;;;37.00;18.00;;;;;;;0.96;100.00;99235.73;1776943;79;21832;-62
2021/03/18 04:27:02;;;;;;;37.10;18.82;;;;;;;0.98;100.00;99240.70;1771750;80;21128;-63
2021/03/18 04:29:31;;;;;;;39.42;17.62;;;;;;;0.99;100.00;99237.20;1774936;79;21176;-61
2021/03/18 04:32:00;;;;;;;35.40;18.25;;;;;;;1.01;100.00;99239.61;1774982;80;20960;-62
2021/03/18 04:34:30;;;;;;;40.73;19.45;;;;;;;1.02;100.00;99242.02;1778663;79;21191;-62
2021/03/18 04:36:58;;;;;;;42.58;19.70;;;;;;;1.04;100.00;99241.89;1765214;79;21174;-64
2021/03/18 04:39:26;;;;;;;50.55;21.75;;;;;;;1.04;100.00;99240.13;1773952;79;21191;-64
2021/03/18 04:41:55;;;;;;;42.00;19.45;;;;;;;1.10;100.00;99240.00;1773996;80;22176;-70
2021/03/18 04:44:23;;;;;;;49.33;21.30;;;;;;;1.11;100.00;99244.20;1774596;80;21036;-62
2021/03/18 04:46:52;;;;;;;45.05;19.77;;;;;;;1.11;100.00;99245.01;1773855;79;21009;-63
2021/03/18 04:49:20;;;;;;;50.58;21.10;;;;;;;1.12;100.00;99246.61;1775940;80;21123;-64
2021/03/18 04:51:48;;;;;;;49.08;21.57;;;;;;;1.14;100.00;99249.85;1777169;79;21114;-64
2021/03/18 04:54:16;;;;;;;53.52;22.07;;;;;;;1.16;100.00;99250.50;1778624;79;21197;-62
2021/03/18 04:56:45;;;;;;;52.88;21.60;;;;;;;1.15;100.00;99247.61;1775069;79;21930;-63
2021/03/18 04:59:16;;;;;;;58.42;23.40;;;;;;;1.14;100.00;99254.98;1776104;79;21132;-61
2021/03/18 05:01:51;;;;;;;55.17;24.30;;;;;;;1.16;100.00;99256.11;1774750;80;21582;-62
2021/03/18 05:04:20;;;;;;;53.83;23.20;;;;;;;1.18;100.00;99256.30;1776089;78;21116;-62
2021/03/18 05:06:54;;;;;;;55.95;23.77;;;;;;;1.20;100.00;99260.80;1776030;79;21191;-66
2021/03/18 05:09:25;;;;;;;54.98;22.25;;;;;;;1.24;100.00;99261.80;1775089;79;21121;-64
2021/03/18 05:11:54;;;;;;;53.60;22.75;;;;;;;1.27;100.00;99265.35;1754089;79;21112;-67
2021/03/18 05:14:22;;;;;;;50.60;21.17;;;;;;;1.29;100.00;99266.00;1770028;79;21128;-66
2021/03/18 05:16:50;;;;;;;55.12;22.52;;;;;;;1.31;100.00;99261.53;1749493;80;21124;-64
2021/03/18 05:19:18;;;;;;;53.85;20.72;;;;;;;1.34;100.00;99263.81;1772965;79;21257;-63
2021/03/18 05:21:47;;;;;;;58.08;23.65;;;;;;;1.36;100.00;99262.69;1773879;79;21133;-62
2021/03/18 05:24:16;;;;;;;53.78;23.35;;;;;;;1.38;100.00;99268.98;1772701;79;21611;-63
2021/03/18 05:26:44;;;;;;;44.77;18.75;;;;;;;1.42;100.00;99274.95;1768383;79;21200;-63
2021/03/18 05:29:13;;;;;;;57.98;22.27;;;;;;;1.45;100.00;99275.94;1771517;79;21208;-64
2021/03/18 05:31:43;;;;;;;63.55;23.77;;;;;;;1.50;100.00;99275.48;1771243;79;21148;-64
2021/03/18 05:34:12;;;;;;;51.15;21.68;;;;;;;1.55;100.00;99278.41;1773294;79;21010;-64
2021/03/18 05:36:40;;;;;;;58.23;22.67;;;;;;;1.61;100.00;99284.24;1774903;79;21124;-66
2021/03/18 05:39:08;;;;;;;53.45;22.50;;;;;;;1.68;100.00;99285.27;1773353;79;21137;-64
2021/03/18 05:41:35;;;;;;;56.68;23.38;;;;;;;1.70;100.00;99283.36;1774822;79;21184;-63
2021/03/18 05:44:06;;;;;;;50.35;19.25;;;;;;;1.70;100.00;99282.08;1773982;79;21176;-63
2021/03/18 05:46:34;;;;;;;46.60;20.05;;;;;;;1.74;100.00;99275.33;1773298;79;21606;-64
2021/03/18 05:49:03;;;;;;;54.42;22.15;;;;;;;1.81;100.00;99273.78;1772464;80;21124;-65
2021/03/18 05:51:33;;;;;;;46.68;19.87;;;;;;;1.81;100.00;99279.72;1774891;79;21673;-63
2021/03/18 05:54:02;;;;;;;47.08;19.05;;;;;;;1.81;100.00;99281.00;1773852;79;21661;-65
2021/03/18 05:56:30;;;;;;;50.75;19.52;;;;;;;1.84;100.00;99286.33;1774511;79;21365;-65
2021/03/18 05:58:59;;;;;;;54.50;20.77;;;;;;;1.86;100.00;99280.58;1770876;80;21120;-64
2021/03/18 06:01:28;;;;;;;46.13;20.65;;;;;;;1.87;100.00;99277.04;1772616;79;21021;-67
2021/03/18 06:03:57;;;;;;;44.65;20.70;;;;;;;1.89;100.00;99283.63;1768468;79;21148;-68
2021/03/18 06:06:26;;;;;;;42.08;17.70;;;;;;;1.91;100.00;99280.44;1753266;79;22118;-65
2021/03/18 06:08:54;;;;;;;41.70;17.57;;;;;;;1.94;100.00;99286.56;1747713;82;21387;-65
2021/03/18 06:11:22;;;;;;;37.88;16.82;;;;;;;2.01;100.00;99282.92;1718928;81;21151;-64
2021/03/18 06:13:53;;;;;;;38.73;16.82;;;;;;;2.07;100.00;99293.86;1746536;81;21549;-64
2021/03/18 06:16:22;;;;;;;43.83;18.80;;;;;;;2.09;100.00;99297.58;1717521;81;21154;-65
2021/03/18 06:18:50;;;;;;;49.15;19.90;;;;;;;2.09;100.00;99293.24;1746461;81;21211;-64
2021/03/18 06:21:18;;;;;;;39.55;17.95;;;;;;;2.08;100.00;99290.80;1715691;81;22704;-65
2021/03/18 06:23:59;;;;;;;43.65;17.98;;;;;;;2.11;100.00;99296.45;1725653;81;21013;-65
2021/03/18 06:26:35;;;;;;;38.73;16.80;;;;;;;2.16;100.00;99297.30;1727814;81;20910;-65
2021/03/18 06:29:06;;;;;;;41.20;19.67;;;;;;;2.23;100.00;99301.33;1728517;81;21147;-70
2021/03/18 06:31:34;;;;;;;36.70;17.97;;;;;;;2.28;100.00;99304.27;1722440;81;21514;-65
2021/03/18 06:34:02;;;;;;;34.95;17.30;;;;;;;2.33;100.00;99300.27;1725446;82;22314;-66
2021/03/18 06:36:32;;;;;;;37.38;17.52;;;;;;;2.39;100.00;99305.30;1731821;81;21081;-65
2021/03/18 06:39:06;;;;;;;38.40;17.50;;;;;;;2.46;100.00;99306.27;1725911;81;20958;-69
2021/03/18 06:41:37;;;;;;;45.10;18.77;;;;;;;2.46;100.00;99300.31;1726655;81;21294;-66
2021/03/18 06:44:21;;;;;;;40.50;19.87;;;;;;;2.41;100.00;99313.16;1726217;81;20981;-65
2021/03/18 06:46:52;;;;;;;45.48;19.23;;;;;;;2.34;100.00;99306.21;1723873;81;21232;-66
2021/03/18 06:49:21;;;;;;;52.17;22.52;;;;;;;2.31;100.00;99304.78;1725759;82;21247;-65
2021/03/18 06:52:09;;;;;;;58.13;25.75;;;;;;;2.34;100.00;99304.44;1726692;81;21107;-66
2021/03/18 06:54:46;;;;;;;62.13;26.40;;;;;;;2.34;100.00;99306.21;1819403;78;23333;-64
2021/03/18 06:57:20;;;;;;;65.10;26.97;;;;;;;2.29;100.00;99310.54;1807991;79;20964;-66
2021/03/18 06:59:47;;;;;;;65.12;27.40;;;;;;;2.31;100.00;99311.66;1807275;79;21196;-64
2021/03/18 07:02:17;;;;;;;59.63;25.60;;;;;;;2.31;100.00;99307.80;1807730;79;21054;-68
2021/03/18 07:04:49;;;;;;;53.73;24.40;;;;;;;2.34;100.00;99301.07;1803766;79;21107;-64
2021/03/18 07:07:20;;;;;;;62.67;26.77;;;;;;;2.33;100.00;99296.41;1806960;79;20986;-64
2021/03/18 07:09:50;;;;;;;49.58;22.42;;;;;;;2.37;100.00;99298.20;1811360;79;21120;-65
2021/03/18 07:12:21;;;;;;;50.45;21.57;;;;;;;2.41;100.00;99296.92;1771676;79;21253;-66
2021/03/18 07:14:50;;;;;;;54.13;22.70;;;;;;;2.44;100.00;99297.91;1809632;79;20989;-65
2021/03/18 07:17:21;;;;;;;48.05;21.20;;;;;;;2.52;100.00;99297.94;1797237;79;21015;-63
2021/03/18 07:19:50;;;;;;;48.85;23.20;;;;;;;2.62;100.00;99303.78;1809016;79;21061;-66
2021/03/18 07:22:20;;;;;;;48.80;23.87;;;;;;;2.71;100.00;99299.95;1806562;79;21144;-64
2021/03/18 07:24:54;;;;;;;50.00;25.55;;;;;;;2.77;100.00;99300.14;1808932;78;21185;-64
2021/03/18 07:27:22;;;;;;;46.05;25.17;;;;;;;2.80;100.00;99302.38;1810074;79;20966;-64
2021/03/18 07:29:51;;;;;;;42.10;21.40;;;;;;;2.81;100.00;99305.78;1805252;79;21192;-65
2021/03/18 07:32:18;;;;;;;52.43;25.45;;;;;;;2.80;100.00;99300.28;1801707;79;21592;-65
2021/03/18 07:34:46;;;;;;;67.20;28.23;;;;;;;2.77;100.00;99297.56;1810097;79;20991;-64
2021/03/18 07:37:14;;;;;;;63.58;29.77;;;;;;;2.78;100.00;99303.52;1800971;79;21229;-64
2021/03/18 07:39:43;;;;;;;67.00;28.27;;;;;;;2.81;100.00;99297.57;1798671;79;21480;-68
2021/03/18 07:42:12;;;;;;;49.85;23.12;;;;;;;2.84;100.00;99302.41;1795484;79;20927;-63
2021/03/18 07:44:41;;;;;;;45.25;20.35;;;;;;;2.89;100.00;99296.79;1807764;78;20988;-64
2021/03/18 07:47:09;;;;;;;45.52;22.85;;;;;;;2.99;100.00;99297.44;1805746;79;21121;-63
2021/03/18 07:49:41;;;;;;;54.85;27.60;;;;;;;3.05;100.00;99299.39;1802238;79;21248;-69
2021/03/18 07:52:17;;;;;;;60.38;29.45;;;;;;;3.08;100.00;99294.41;1803777;79;21121;-63
2021/03/18 07:54:48;;;;;;;65.52;29.57;;;;;;;3.07;100.00;99298.77;1808018;79;21063;-64
2021/03/18 07:57:16;;;;;;;61.37;27.90;;;;;;;3.05;100.00;99296.02;1806756;79;20993;-65
2021/03/18 07:59:44;;;;;;;59.42;29.02;;;;;;;3.02;100.00;99291.98;1794436;79;21042;-65
2021/03/18 08:02:22;;;;;;;52.53;24.00;;;;;;;3.06;100.00;99286.83;1800618;79;22391;-65
2021/03/18 08:04:55;;;;;;;48.87;22.73;;;;;;;3.16;100.00;99291.85;1793944;79;21527;-63
2021/03/18 08:07:44;;;;;;;45.55;22.07;;;;;;;3.28;100.00;99289.77;1798752;79;20946;-66
2021/03/18 08:10:28;;;;;;;55.48;25.00;;;;;;;3.38;100.00;99293.01;1795884;78;21482;-63
2021/03/18 08:12:59;;;;;;;45.70;21.25;;;;;;;3.47;100.00;99295.89;1802335;78;21115;-68
2021/03/18 08:15:43;;;;;;;41.05;18.20;;;;;;;3.60;100.00;99292.86;1744928;81;22367;-62
2021/03/18 08:18:22;;;;;;;40.10;17.42;;;;;;;3.73;100.00;99291.06;1767836;79;21577;-63
2021/03/18 08:20:57;;;;;;;37.88;18.40;;;;;;;3.82;100.00;99290.88;1725596;81;21674;-64
2021/03/18 08:23:33;;;;;;;37.60;17.95;;;;;;;3.95;100.00;99299.91;1735804;81;21025;-64
2021/03/18 08:26:11;;;;;;;38.17;17.62;;;;;;;4.06;100.00;99284.89;1766146;80;21128;-65
2021/03/18 08:28:46;;;;;;;36.17;17.90;;;;;;;4.18;100.00;99285.84;1765951;79;23319;-63
2021/03/18 08:31:22;;;;;;;40.73;18.73;;;;;;;4.23;100.00;99281.78;1757552;80;20946;-63
2021/03/18 08:33:54;;;;;;;36.00;17.60;;;;;;;4.38;100.00;99288.34;1766857;79;21166;-62
2021/03/18 08:36:31;;;;;;;29.37;15.18;;;;;;;4.48;100.00;99291.54;1732327;81;21132;-62
2021/03/18 08:39:06;;;;;;;30.80;16.67;;;;;;;4.50;100.00;99289.58;1768966;79;21000;-64
2021/03/18 08:41:41;;;;;;;28.90;14.98;;;;;;;4.40;100.00;99295.44;1767729;79;22117;-63
2021/03/18 08:44:26;;;;;;;25.92;13.50;;;;;;;4.34;100.00;99293.52;1769931;79;21233;-64
2021/03/18 08:47:03;;;;;;;30.27;15.85;;;;;;;4.31;100.00;99300.30;1805911;78;21061;-63
2021/03/18 08:49:36;;;;;;;30.15;15.03;;;;;;;4.24;100.00;99292.41;1804285;79;21181;-63
2021/03/18 08:52:10;;;;;;;22.58;13.30;;;;;;;4.32;100.00;99296.77;1807321;79;21184;-63
2021/03/18 08:54:49;;;;;;;21.82;13.10;;;;;;;4.36;100.00;99289.01;1795096;79;22502;-63
2021/03/18 08:57:25;;;;;;;26.80;14.58;;;;;;;4.38;100.00;99293.50;1796137;79;20943;-67
2021/03/18 08:59:57;;;;;;;19.90;12.40;;;;;;;4.34;100.00;99290.94;1802846;79;21147;-66
2021/03/18 09:02:38;;;;;;;17.40;10.43;;;;;;;4.34;100.00;99305.13;1735335;81;21106;-66
2021/03/18 09:05:16;;;;;;;19.15;11.60;;;;;;;4.25;100.00;99297.11;1751492;79;21145;-66
2021/03/18 09:07:47;;;;;;;18.87;10.28;;;;;;;4.18;100.00;99300.02;1745051;81;21214;-64
2021/03/18 09:10:26;;;;;;;19.57;10.32;;;;;;;4.15;100.00;99304.53;1758834;79;21036;-63
2021/03/18 09:13:00;;;;;;;20.02;12.75;;;;;;;4.14;100.00;99301.64;1769185;80;21163;-64
2021/03/18 09:15:34;;;;;;;17.50;11.55;;;;;;;4.07;100.00;99312.28;1756787;79;20988;-63
2021/03/18 09:18:22;;;;;;;17.65;10.95;;;;;;;4.01;100.00;99306.48;1745261;79;21012;-65
2021/03/18 09:21:02;;;;;;;17.62;11.65;;;;;;;3.98;100.00;99311.16;1752488;79;21240;-64
2021/03/18 09:23:33;;;;;;;19.05;12.70;;;;;;;3.95;100.00;99311.02;1753446;79;21527;-63
2021/03/18 09:26:04;;;;;;;20.45;12.15;;;;;;;3.95;100.00;99308.45;1753218;79;21534;-68
2021/03/18 09:28:34;;;;;;;20.37;12.15;;;;;;;3.97;100.00;99310.36;1745899;79;21237;-62
2021/03/18 09:31:02;;;;;;;19.35;11.90;;;;;;;3.96;100.00;99315.20;1750552;79;21189;-64
2021/03/18 09:33:43;;;;;;;21.82;13.10;;;;;;;3.99;100.00;99313.59;1763285;80;21358;-62
2021/03/18 09:36:20;;;;;;;15.48;10.48;;;;;;;4.04;100.00;99322.92;1764959;79;21011;-63
2021/03/18 09:39:11;;;;;;;18.15;10.55;;;;;;;4.17;100.00;99322.89;1754437;79;21015;-64
2021/03/18 09:41:45;;;;;;;16.62;9.83;;;;;;;4.32;100.00;99338.05;1755244;79;22482;-62
2021/03/18 09:44:17;;;;;;;17.15;10.28;;;;;;;4.35;100.00;99333.82;1757351;79;21122;-62
2021/03/18 09:46:52;;;;;;;16.23;10.10;;;;;;;4.36;100.00;99327.71;1743655;81;22203;-62
2021/03/18 09:49:38;;;;;;;18.35;10.63;;;;;;;4.34;100.00;99334.31;1761981;80;21574;-62
2021/03/18 09:52:11;;;;;;;16.73;11.53;;;;;;;4.28;100.00;99342.73;1757789;80;21517;-61
2021/03/18 09:54:40;;;;;;;20.25;10.68;;;;;;;4.22;100.00;99345.15;1738477;82;21022;-64
2021/03/18 09:57:10;;;;;;;17.73;10.40;;;;;;;4.15;100.00;99345.80;1745072;82;21125;-62
2021/03/18 09:59:42;;;;;;;20.88;12.40;;;;;;;4.13;100.00;99346.95;1733420;82;21267;-66
2021/03/18 10:02:12;;;;;;;21.50;14.58;;;;;;;4.13;100.00;99341.79;1754940;81;21038;-61
2021/03/18 10:04:41;;;;;;;17.80;12.50;;;;;;;4.15;100.00;99350.16;1693124;81;22305;-61
2021/03/18 10:07:11;;;;;;;19.32;10.75;;;;;;;4.18;100.00;99341.29;1797179;79;21123;-61
2021/03/18 10:09:44;;;;;;;20.85;12.43;;;;;;;4.20;100.00;99341.91;1805264;79;20941;-61
2021/03/18 10:12:20;;;;;;;23.52;13.72;;;;;;;4.22;100.00;99345.95;1786826;77;21442;-63
2021/03/18 10:15:05;;;;;;;20.15;12.35;;;;;;;4.21;100.00;99342.26;1797955;79;21222;-61
2021/03/18 10:17:40;;;;;;;22.22;12.35;;;;;;;4.24;100.00;99347.06;1794769;79;21006;-64
2021/03/18 10:20:32;;;;;;;21.77;13.15;;;;;;;4.25;100.00;99340.95;1795910;77;21196;-62
2021/03/18 10:23:10;;;;;;;19.90;12.28;;;;;;;4.22;100.00;99343.38;1729716;79;21193;-61
2021/03/18 10:25:39;;;;;;;22.48;13.22;;;;;;;4.20;100.00;99332.89;1792921;78;21145;-61
2021/03/18 10:28:11;;;;;;;21.12;12.85;;;;;;;4.21;100.00;99325.49;1796594;79;21053;-61
2021/03/18 10:30:42;;;;;;;;;;;;;;;4.29;100.00;99328.05;1797316;77;21042;-62
2021/03/18 10:33:24;;;;;;;20.23;12.15;;;;;;;4.36;100.00;99327.22;1791175;79;20151;-68
2021/03/18 10:35:58;;;;;;;22.70;12.63;;;;;;;4.42;100.00;99330.09;1786201;77;21105;-61
2021/03/18 10:38:37;;;;;;;22.02;13.18;;;;;;;4.49;100.00;99336.21;1795771;77;21962;-61
2021/03/18 10:41:13;;;;;;;22.82;14.30;;;;;;;4.49;100.00;99338.30;1781119;77;21585;-61
2021/03/18 10:43:43;;;;;;;25.97;13.68;;;;;;;4.48;100.00;99341.86;1795784;79;21105;-62
2021/03/18 10:46:18;;;;;;;20.70;12.82;;;;;;;4.48;100.00;99335.90;1793668;79;21187;-62
2021/03/18 10:48:49;;;;;;;23.85;14.65;;;;;;;4.51;100.00;99332.96;1795231;79;21221;-60
2021/03/18 10:51:19;;;;;;;22.52;14.45;;;;;;;4.51;100.00;99331.21;1786967;79;21404;-60
2021/03/18 10:53:53;;;;;;;18.55;12.10;;;;;;;4.52;100.00;99335.39;1791411;79;21057;-60
2021/03/18 10:56:28;;;;;;;24.65;12.90;;;;;;;4.55;100.00;99333.77;1791386;79;21615;-67
2021/03/18 10:59:12;;;;;;;21.75;14.78;;;;;;;4.67;100.00;99336.80;1800841;79;21576;-60
2021/03/18 11:01:40;;;;;;;;;;;;;;;4.81;100.00;99338.68;1780049;79;21556;-60
2021/03/18 11:04:12;;;;;;;25.77;14.03;;;;;;;4.99;100.00;99335.03;1795170;79;21356;-66
2021/03/18 11:06:50;;;;;;;23.45;14.87;;;;;;;5.15;100.00;99328.47;1800478;79;21588;-60
2021/03/18 11:09:19;;;;;;;27.37;16.20;;;;;;;5.43;100.00;99326.21;1797955;79;21189;-60
2021/03/18 11:12:00;;;;;;;26.83;16.43;;;;;;;5.81;100.00;99322.36;1795660;79;21139;-62
2021/03/18 11:14:31;;;;;;;30.50;15.15;;;;;;;6.16;100.00;99324.00;1797194;79;21785;-60
2021/03/18 11:17:07;;;;;;;27.10;15.03;;;;;;;6.57;100.00;99329.05;1794045;79;21358;-62
2021/03/18 11:19:42;;;;;;;26.33;15.40;;;;;;;6.85;100.00;99328.39;1799640;79;21241;-61
2021/03/18 11:22:11;;;;;;;26.87;17.57;;;;;;;6.97;100.00;99330.02;1785983;78;21439;-61
2021/03/18 11:24:43;;;;;;;23.00;13.83;;;;;;;7.09;100.00;99323.39;1796289;79;21376;-60
2021/03/18 11:27:13;;;;;;;21.80;13.77;;;;;;;7.28;100.00;99319.41;1799706;79;21768;-63
2021/03/18 11:29:41;;;;;;;20.37;14.37;;;;;;;7.39;100.00;99317.62;1795416;79;23148;-60
2021/03/18 11:32:23;;;;;;;22.63;17.27;;;;;;;7.51;100.00;99308.34;1822794;77;23388;-61
2021/03/18 11:34:57;;;;;;;27.47;17.87;;;;;;;7.62;100.00;99308.84;1792747;79;21014;-62
2021/03/18 11:37:26;;;;;;;27.23;17.87;;;;;;;7.65;100.00;99316.23;1794360;78;21216;-63
2021/03/18 11:39:57;;;;;;;26.90;16.77;;;;;;;7.49;100.00;99317.29;1795493;78;21314;-60
2021/03/18 11:42:25;;;;;;;28.03;17.97;;;;;;;7.26;100.00;99310.99;1753501;80;21963;-64
2021/03/18 11:44:54;;;;;;;24.30;14.63;;;;;;;7.10;100.00;99311.23;1757229;80;21273;-60
2021/03/18 11:47:23;;;;;;;25.47;16.13;;;;;;;7.12;100.00;99315.23;1745899;82;22114;-62
2021/03/18 11:49:51;;;;;;;28.53;19.83;;;;;;;7.09;100.00;99328.58;1772464;80;21248;-61
2021/03/18 11:52:19;;;;;;;26.23;17.43;;;;;;;7.02;100.00;99315.54;1743406;80;21253;-61
2021/03/18 11:55:01;;;;;;;24.27;15.27;;;;;;;7.04;100.00;99317.44;1816565;78;23159;-68
2021/03/18 11:57:30;;;;;;;22.83;15.17;;;;;;;7.06;100.00;99326.34;1798184;78;21200;-62
2021/03/18 11:59:58;;;;;;;29.47;17.60;;;;;;;7.11;100.00;99329.68;1801845;79;21309;-61
2021/03/18 12:02:26;;;;;;;24.83;16.73;;;;;;;7.00;100.00;99325.77;1798802;79;22041;-62
2021/03/18 12:04:56;;;;;;;22.63;15.00;;;;;;;6.88;100.00;99320.26;1774150;79;21143;-67
2021/03/18 12:07:25;;;;;;;17.87;11.60;;;;;;;6.77;100.00;99323.31;1797086;78;22071;-62
2021/03/18 12:09:54;;;;;;;17.87;12.27;;;;;;;6.54;100.00;99329.91;1790403;78;21417;-61
2021/03/18 12:12:28;;;;;;;11.57;8.63;;;;;;;6.29;100.00;99327.59;1794561;78;22127;-62
2021/03/18 12:14:56;;;;;;;12.23;8.17;;;;;;;6.13;100.00;99334.20;1796117;78;22050;-63
2021/03/18 12:17:44;;;;;;;10.93;7.50;;;;;;;6.00;100.00;99335.32;1720824;81;21293;-62
2021/03/18 12:20:17;;;;;;;11.63;8.13;;;;;;;5.82;100.00;99336.89;1743777;81;21461;-61
2021/03/18 12:22:45;;;;;;;;;;;;;;;5.75;100.00;99340.66;1713308;81;21421;-62
2021/03/18 12:25:14;;;;;;;14.37;10.83;;;;;;;5.71;100.00;99343.77;1714384;81;22291;-61
2021/03/18 12:27:42;;;;;;;18.55;12.03;;;;;;;5.72;100.00;99337.61;1677042;84;21119;-61
2021/03/18 12:30:14;;;;;;;20.67;12.50;;;;;;;5.75;100.00;99337.27;1684760;83;21177;-64
2021/03/18 12:32:43;;;;;;;22.87;17.85;;;;;;;5.81;100.00;99340.47;1667378;83;21987;-64
2021/03/18 12:35:13;;;;;;;23.63;17.80;;;;;;;5.82;100.00;99335.59;1665352;83;22443;-63
2021/03/18 12:37:44;;;;;;;22.40;15.53;;;;;;;5.78;100.00;99334.34;1680936;83;21561;-63
2021/03/18 12:40:13;;;;;;;20.68;14.15;;;;;;;5.73;100.00;99333.58;1719285;81;21292;-68
2021/03/18 12:42:42;;;;;;;19.77;13.58;;;;;;;5.73;100.00;99347.00;1707809;83;21280;-61
2021/03/18 12:45:13;;;;;;;17.53;13.50;;;;;;;5.70;100.00;99334.41;1677811;85;21184;-60
2021/03/18 12:47:41;;;;;;;17.20;13.08;;;;;;;5.61;100.00;99343.53;1686499;83;21524;-60
2021/03/18 12:50:14;;;;;;;17.40;11.97;;;;;;;5.56;100.00;99342.42;1669457;83;21761;-68
2021/03/18 12:52:42;;;;;;;16.52;11.68;;;;;;;5.49;100.00;99341.04;1675091;83;25885;-61
2021/03/18 12:55:11;;;;;;;23.57;15.07;;;;;;;5.46;100.00;99334.12;1723214;80;21097;-61
2021/03/18 12:57:41;;;;;;;16.45;10.98;;;;;;;5.42;100.00;99337.99;1720433;82;21620;-62
2021/03/18 13:00:13;;;;;;;19.00;11.85;;;;;;;5.36;100.00;99339.50;1803688;79;21101;-65
2021/03/18 13:02:41;;;;;;;16.97;12.25;;;;;;;5.31;100.00;99346.97;1805110;78;21568;-62
2021/03/18 13:05:10;;;;;;;17.35;12.85;;;;;;;5.30;100.00;99344.05;1801153;79;21127;-62
2021/03/18 13:07:38;;;;;;;17.20;12.13;;;;;;;5.31;100.00;99350.36;1745171;80;21205;-62
2021/03/18 13:10:08;;;;;;;15.00;10.05;;;;;;;5.30;100.00;99351.80;1770966;80;21708;-61
2021/03/18 13:12:36;;;;;;;16.52;11.97;;;;;;;5.27;100.00;99345.22;1745057;80;21213;-63
2021/03/18 13:15:07;;;;;;;17.05;12.28;;;;;;;5.26;100.00;99347.46;1801657;79;21431;-61
2021/03/18 13:17:34;;;;;;;15.45;10.95;;;;;;;5.17;100.00;99348.50;1797167;79;21018;-60
2021/03/18 13:20:06;;;;;;;15.88;10.65;;;;;;;5.04;100.00;99349.06;1797509;78;20986;-62
2021/03/18 13:22:34;;;;;;;16.05;11.18;;;;;;;5.01;100.00;99348.10;1788749;78;20951;-61
2021/03/18 13:25:04;;;;;;;16.42;11.65;;;;;;;4.99;100.00;99347.45;1755423;80;22153;-66
2021/03/18 13:27:33;;;;;;;15.58;10.08;;;;;;;4.92;100.00;99347.80;1761604;80;21364;-63
2021/03/18 13:30:01;;;;;;;14.65;9.68;;;;;;;4.84;100.00;99349.14;1789953;78;21632;-69
2021/03/18 13:32:29;;;;;;;14.90;10.98;;;;;;;4.82;100.00;99347.23;1782235;79;21069;-63
2021/03/18 13:34:57;;;;;;;16.73;11.83;;;;;;;4.79;100.00;99349.65;1792116;78;21608;-61
2021/03/18 13:37:25;;;;;;;15.88;9.63;;;;;;;4.79;100.00;99348.36;1786421;78;22518;-62
2021/03/18 13:39:54;;;;;;;15.78;9.58;;;;;;;4.78;100.00;99349.83;1789052;78;21268;-62
2021/03/18 13:42:21;;;;;;;18.57;11.55;;;;;;;4.73;100.00;99348.22;1788965;79;21617;-63
2021/03/18 13:44:49;;;;;;;19.98;13.18;;;;;;;4.71;100.00;99345.02;1792896;79;21989;-62
2021/03/18 13:47:18;;;;;;;37.13;21.10;;;;;;;4.72;100.00;99346.61;1789231;78;21038;-61
2021/03/18 13:49:47;;;;;;;36.88;19.62;;;;;;;4.72;100.00;99350.48;1798086;78;20916;-64
2021/03/18 13:52:16;;;;;;;47.23;26.85;;;;;;;4.70;100.00;99342.92;1785052;78;22848;-62
2021/03/18 13:54:47;;;;;;;48.95;27.67;;;;;;;4.70;100.00;99345.96;1788912;78;21137;-63
2021/03/18 13:57:18;;;;;;;26.85;17.67;;;;;;;4.72;100.00;99347.91;1810557;78;21133;-61
2021/03/18 13:59:46;;;;;;;23.22;16.70;;;;;;;4.69;100.00;99347.74;1802763;78;21464;-70
2021/03/18 14:02:18;;;;;;;20.45;13.60;;;;;;;4.66;100.00;99346.81;1810008;78;21140;-63
2021/03/18 14:04:46;;;;;;;18.60;13.48;;;;;;;4.69;100.00;99343.88;1802250;78;21360;-62
2021/03/18 14:07:15;;;;;;;15.63;11.03;;;;;;;4.77;100.00;99346.45;1788802;78;21070;-62
2021/03/18 14:09:43;;;;;;;14.35;9.65;;;;;;;4.86;100.00;99345.91;1793817;78;20958;-70
2021/03/18 14:12:11;;;;;;;15.10;9.28;;;;;;;4.93;100.00;99340.89;1803221;78;21002;-64
2021/03/18 14:14:38;;;;;;;15.30;10.20;;;;;;;4.96;100.00;99345.69;1749546;80;21012;-63
2021/03/18 14:17:06;;;;;;;12.18;8.35;;;;;;;4.95;100.00;99350.05;1747744;81;22359;-63
2021/03/18 14:19:36;;;;;;;13.30;9.43;;;;;;;4.93;100.00;99352.52;1749883;80;21041;-70
2021/03/18 14:22:03;;;;;;;14.23;10.13;;;;;;;4.92;100.00;99350.88;1744882;81;22145;-64
2021/03/18 14:24:33;;;;;;;17.62;12.73;;;;;;;4.90;100.00;99358.81;1758268;80;21017;-60
2021/03/18 14:27:01;;;;;;;14.35;10.13;;;;;;;4.87;100.00;99356.55;1777492;80;21070;-63
2021/03/18 14:29:29;;;;;;;12.70;8.78;;;;;;;4.88;100.00;99360.73;1742128;80;22124;-64
2021/03/18 14:31:57;;;;;;;17.90;9.85;;;;;;;4.83;100.00;99357.38;1767761;80;21332;-63
2021/03/18 14:34:26;;;;;;;13.98;10.08;;;;;;;4.82;100.00;99360.94;1759532;80;21650;-63
2021/03/18 14:36:57;;;;;;;14.65;9.33;;;;;;;4.81;100.00;99358.50;1757214;80;21062;-64
2021/03/18 14:39:25;;;;;;;13.40;8.98;;;;;;;4.80;100.00;99359.48;1775392;80;21089;-69
2021/03/18 14:41:53;;;;;;;12.35;8.95;;;;;;;4.78;100.00;99363.53;1763497;80;21456;-64
2021/03/18 14:44:21;;;;;;;14.85;9.40;;;;;;;4.75;100.00;99359.20;1784779;80;21669;-64
2021/03/18 14:46:49;;;;;;;12.20;8.85;;;;;;;4.69;100.00;99367.59;1746569;80;21094;-64
2021/03/18 14:49:18;;;;;;;15.15;9.50;;;;;;;4.63;100.00;99363.42;1746937;81;21117;-64
2021/03/18 14:51:47;;;;;;;16.00;10.85;;;;;;;4.58;100.00;99364.42;1773456;80;21176;-64
2021/03/18 14:54:15;;;;;;;16.73;11.25;;;;;;;4.55;100.00;99368.62;1777259;80;21734;-62
2021/03/18 14:56:43;;;;;;;14.73;9.10;;;;;;;4.52;100.00;99372.81;1769217;80;21097;-62
2021/03/18 14:59:13;;;;;;;13.05;8.78;;;;;;;4.50;100.00;99374.73;1781516;79;21228;-63
2021/03/18 15:01:42;;;;;;;16.90;9.35;;;;;;;4.49;100.00;99379.59;1784283;78;21434;-66
2021/03/18 15:04:10;;;;;;;14.90;10.63;;;;;;;4.47;100.00;99376.84;1788036;78;22590;-63
2021/03/18 15:06:39;;;;;;;15.75;9.50;;;;;;;4.44;100.00;99375.42;1789270;78;22597;-61
2021/03/18 15:09:08;;;;;;;14.03;9.15;;;;;;;4.42;100.00;99376.55;1798751;79;21076;-63
2021/03/18 15:11:37;;;;;;;15.32;9.78;;;;;;;4.40;100.00;99376.72;1797456;78;21034;-64
2021/03/18 15:14:06;;;;;;;16.87;10.60;;;;;;;4.39;100.00;99384.12;1802035;78;21117;-61
2021/03/18 15:16:34;;;;;;;15.93;10.18;;;;;;;4.37;100.00;99379.62;1750835;80;21643;-62
2021/03/18 15:19:05;;;;;;;15.13;9.68;;;;;;;4.35;100.00;99382.35;1753409;80;22678;-61
2021/03/18 15:21:33;;;;;;;14.28;9.53;;;;;;;4.34;100.00;99381.23;1741714;81;21272;-63
2021/03/18 15:24:03;;;;;;;19.35;10.55;;;;;;;4.32;100.00;99378.83;1801154;78;21210;-62
2021/03/18 15:26:31;;;;;;;15.72;9.55;;;;;;;4.32;100.00;99382.70;1790966;78;21224;-62
2021/03/18 15:29:01;;;;;;;15.83;10.65;;;;;;;4.34;100.00;99384.62;1796642;79;21038;-62
2021/03/18 15:31:30;;;;;;;19.48;11.78;;;;;;;4.34;100.00;99385.11;1754550;80;21191;-69
2021/03/18 15:33:58;;;;;;;15.85;10.32;;;;;;;4.34;100.00;99394.94;1754856;80;21580;-62
2021/03/18 15:36:27;;;;;;;15.30;9.68;;;;;;;4.36;100.00;99393.50;1746965;81;21525;-63
2021/03/18 15:38:56;;;;;;;12.50;8.13;;;;;;;4.35;100.00;99399.12;1767561;80;21022;-62
2021/03/18 15:41:25;;;;;;;13.28;8.95;;;;;;;4.31;100.00;99394.45;1754192;80;21604;-71